Soaring Guidance
Issued by NWS Reno, NV

Home | Current Version | Previous Version | Text Only | Print | Product List | Glossary On
Versions: 1 2 3 4 5 6 7
000
UXUS97 KREV 231454
SRGREV

SOARING FORECAST
NATIONAL WEATHER SERVICE - RENO NV
700 AM PST MON JAN 23 2017

THIS SOARING FORECAST IS FOR THE EASTERN SIERRA AND WESTERN NEVADA
WITH SPECIFIC INDICES FOR THE GREATER RENO AREA.

THIS FORECAST IS PREPARED DAILY BY 700 AM AND IS NOT UPDATED.

FOR CURRENT FLIGHT CONDITIONS...FORECASTS...AND ADVISORIES...ACCESS
YOUR LOCAL BRIEFING OUTLET OR FLIGHT SERVICE STATION.

*******************************************************************
FORECASTED LOCAL INDICES FOR RENO:        TODAY     YESTERDAY
FORECASTED MAX TEMP AT RENO (DEG F).....     35          42
FORECASTED TRIGGER TEMPERATURE (DEG F)..     35          35
   EXCEEDED YESTERDAY BY -155 AM PST
FORECASTED MAXIMUM ALTITUDE (FT MSL)....   9100       11500
FORECASTED SOARING INDEX (FPM)..........    333         555
FORECASTED K-INDEX.........VALID 18Z....     17          27
FORECASTED K-INDEX.........VALID 00Z....     24          28
FORECASTED LIFTED INDEX....VALID 18Z....      2           2
FORECASTED LIFTED INDEX....VALID 00Z....      1           1

AFTERNOON WINDS ALOFT FORECAST
MSL (FT) WIND/TEMP
9000  2717/-11
10000 2717/-13
12000 2817/-19
14000 2717/-23
16000 2718/-28
18000 2719/-33
24000 2621/-47
30000 2620/-50
34000 2623/-47
39000 2624/-46

SLIDE MOUNTAIN DATA:
     DATE       TIME     TEMP  DEWPT   RH         WIND (MPH)
                        (F)   (F)           | DIR  SPEED GUST
2017-01-23    05:50      10     9     90    | 305     NA
2017-01-23    05:20      11     9     91    | 305     NA
2017-01-23    05:00      11     9     91    | 305     NA

RENO TAF FORECAST:
KRNO 231126Z 2312/2412 VRB04KT P6SM VCSH FEW010 BKN040
     FM231600 VRB04KT P6SM FEW020 BKN050
     FM232200 29008KT P6SM VCSH SCT030 BKN060
     FM240400 VRB03KT P6SM SCT040 BKN070

CARSON CITY TAF FORECAST:
KCXP 231126Z 2312/2412 VRB04KT P6SM VCSH FEW008 BKN040
     FM231600 VRB04KT P6SM FEW020 BKN050
     FM232200 24006KT P6SM VCSH SCT030 BKN050
     FM240400 VRB03KT P6SM SCT040 BKN070

OUTLOOK FOR THE RENO-CARSON CITY-MINDEN AREA:
.TUESDAY...MOSTLY CLOUDY IN THE MORNING THEN BECOMING PARTLY
CLOUDY. SLIGHT CHANCE OF SNOW SHOWERS. HIGHS 27 TO 32. NORTHWEST
WINDS AROUND 10 MPH.

SUNRISE AND SUNSET
JANUARY 23 2017.......SUNRISE   713 AM PST   SUNSET   509 PM PST
JANUARY 24 2017.......SUNRISE   713 AM PST   SUNSET   510 PM PST



USA.gov is the U.S. government's official web portal to all federal, state and local government web resources and services.